sensor_id;sensor_type;location;lat;lon;timestamp;P1;durP1;ratioP1;P2;durP2;ratioP2
10319;SDS011;5205;52.168;5.420;2024-01-10T00:01:46;4.35;;;1.60;;
10319;SDS011;5205;52.168;5.420;2024-01-10T00:04:13;9.13;;;1.75;;
10319;SDS011;5205;52.168;5.420;2024-01-10T00:06:41;3.05;;;1.70;;
10319;SDS011;5205;52.168;5.420;2024-01-10T00:09:08;4.50;;;1.75;;
10319;SDS011;5205;52.168;5.420;2024-01-10T00:11:36;3.08;;;1.70;;
10319;SDS011;5205;52.168;5.420;2024-01-10T00:14:04;4.15;;;1.58;;
10319;SDS011;5205;52.168;5.420;2024-01-10T00:16:31;4.45;;;1.60;;
10319;SDS011;5205;52.168;5.420;2024-01-10T00:18:59;3.33;;;1.58;;
10319;SDS011;5205;52.168;5.420;2024-01-10T00:21:26;4.53;;;2.00;;
10319;SDS011;5205;52.168;5.420;2024-01-10T00:23:53;5.82;;;1.85;;
10319;SDS011;5205;52.168;5.420;2024-01-10T00:26:20;3.75;;;1.92;;
10319;SDS011;5205;52.168;5.420;2024-01-10T00:28:47;3.17;;;1.48;;
10319;SDS011;5205;52.168;5.420;2024-01-10T00:31:15;3.22;;;1.70;;
10319;SDS011;5205;52.168;5.420;2024-01-10T00:33:43;3.83;;;2.55;;
10319;SDS011;5205;52.168;5.420;2024-01-10T00:36:10;4.63;;;2.13;;
10319;SDS011;5205;52.168;5.420;2024-01-10T00:38:37;4.10;;;2.17;;
10319;SDS011;5205;52.168;5.420;2024-01-10T00:41:04;3.63;;;1.95;;
10319;SDS011;5205;52.168;5.420;2024-01-10T00:43:31;6.78;;;1.80;;
10319;SDS011;5205;52.168;5.420;2024-01-10T00:45:58;2.72;;;1.60;;
10319;SDS011;5205;52.168;5.420;2024-01-10T00:48:27;4.80;;;1.65;;
10319;SDS011;5205;52.168;5.420;2024-01-10T00:50:54;3.35;;;1.60;;
10319;SDS011;5205;52.168;5.420;2024-01-10T00:53:21;1.85;;;1.40;;
10319;SDS011;5205;52.168;5.420;2024-01-10T00:55:48;5.60;;;1.80;;
10319;SDS011;5205;52.168;5.420;2024-01-10T00:58:15;4.50;;;2.20;;
10319;SDS011;5205;52.168;5.420;2024-01-10T01:00:42;4.28;;;1.60;;
10319;SDS011;5205;52.168;5.420;2024-01-10T01:03:09;6.03;;;2.95;;
10319;SDS011;5205;52.168;5.420;2024-01-10T01:05:38;2.70;;;1.48;;
10319;SDS011;5205;52.168;5.420;2024-01-10T01:08:06;4.15;;;1.98;;
10319;SDS011;5205;52.168;5.420;2024-01-10T01:10:33;3.28;;;1.67;;
10319;SDS011;5205;52.168;5.420;2024-01-10T01:13:00;3.67;;;1.83;;
10319;SDS011;5205;52.168;5.420;2024-01-10T01:15:28;4.05;;;1.75;;
10319;SDS011;5205;52.168;5.420;2024-01-10T01:17:55;4.65;;;2.03;;
10319;SDS011;5205;52.168;5.420;2024-01-10T01:20:22;2.45;;;1.80;;
10319;SDS011;5205;52.168;5.420;2024-01-10T01:22:50;3.97;;;1.90;;
10319;SDS011;5205;52.168;5.420;2024-01-10T01:25:18;3.75;;;1.58;;
10319;SDS011;5205;52.168;5.420;2024-01-10T01:27:45;4.47;;;2.25;;
10319;SDS011;5205;52.168;5.420;2024-01-10T01:30:12;5.38;;;2.00;;
10319;SDS011;5205;52.168;5.420;2024-01-10T01:32:39;3.20;;;1.85;;
10319;SDS011;5205;52.168;5.420;2024-01-10T01:35:06;3.92;;;1.80;;
10319;SDS011;5205;52.168;5.420;2024-01-10T01:37:33;2.85;;;1.65;;
10319;SDS011;5205;52.168;5.420;2024-01-10T01:40:02;5.13;;;2.13;;
10319;SDS011;5205;52.168;5.420;2024-01-10T01:42:29;7.75;;;2.42;;
10319;SDS011;5205;52.168;5.420;2024-01-10T01:47:23;3.17;;;1.58;;
10319;SDS011;5205;52.168;5.420;2024-01-10T01:49:52;3.97;;;2.10;;
10319;SDS011;5205;52.168;5.420;2024-01-10T01:52:19;2.90;;;1.77;;
10319;SDS011;5205;52.168;5.420;2024-01-10T01:54:46;3.92;;;2.17;;
10319;SDS011;5205;52.168;5.420;2024-01-10T01:57:15;3.47;;;2.13;;
10319;SDS011;5205;52.168;5.420;2024-01-10T01:59:42;3.35;;;1.58;;
10319;SDS011;5205;52.168;5.420;2024-01-10T02:02:09;4.60;;;2.03;;
10319;SDS011;5205;52.168;5.420;2024-01-10T02:04:38;5.60;;;1.90;;
10319;SDS011;5205;52.168;5.420;2024-01-10T02:07:05;3.83;;;1.98;;
10319;SDS011;5205;52.168;5.420;2024-01-10T02:09:32;5.68;;;2.35;;
10319;SDS011;5205;52.168;5.420;2024-01-10T02:11:59;6.28;;;2.38;;
10319;SDS011;5205;52.168;5.420;2024-01-10T02:14:28;5.32;;;2.50;;
10319;SDS011;5205;52.168;5.420;2024-01-10T02:16:55;3.95;;;2.20;;
10319;SDS011;5205;52.168;5.420;2024-01-10T02:19:23;2.50;;;1.63;;
10319;SDS011;5205;52.168;5.420;2024-01-10T02:21:51;4.63;;;2.42;;
10319;SDS011;5205;52.168;5.420;2024-01-10T02:24:18;4.13;;;1.95;;
10319;SDS011;5205;52.168;5.420;2024-01-10T02:26:47;4.68;;;2.33;;
10319;SDS011;5205;52.168;5.420;2024-01-10T02:29:15;3.80;;;1.90;;
10319;SDS011;5205;52.168;5.420;2024-01-10T02:31:42;3.50;;;1.92;;
10319;SDS011;5205;52.168;5.420;2024-01-10T02:34:09;3.03;;;1.88;;
10319;SDS011;5205;52.168;5.420;2024-01-10T02:36:36;4.03;;;1.85;;
10319;SDS011;5205;52.168;5.420;2024-01-10T02:39:03;5.78;;;2.53;;
10319;SDS011;5205;52.168;5.420;2024-01-10T02:41:30;3.83;;;1.92;;
10319;SDS011;5205;52.168;5.420;2024-01-10T02:43:59;2.70;;;1.52;;
10319;SDS011;5205;52.168;5.420;2024-01-10T02:46:26;4.05;;;2.13;;
10319;SDS011;5205;52.168;5.420;2024-01-10T02:48:53;3.08;;;1.90;;
10319;SDS011;5205;52.168;5.420;2024-01-10T02:51:21;7.53;;;2.40;;
10319;SDS011;5205;52.168;5.420;2024-01-10T02:53:48;1.88;;;1.40;;
10319;SDS011;5205;52.168;5.420;2024-01-10T02:56:14;3.80;;;2.00;;
10319;SDS011;5205;52.168;5.420;2024-01-10T02:58:41;3.30;;;1.92;;
10319;SDS011;5205;52.168;5.420;2024-01-10T03:01:10;5.35;;;1.92;;
10319;SDS011;5205;52.168;5.420;2024-01-10T03:03:37;5.00;;;1.85;;
10319;SDS011;5205;52.168;5.420;2024-01-10T03:06:04;3.65;;;1.90;;
10319;SDS011;5205;52.168;5.420;2024-01-10T03:08:31;4.75;;;2.35;;
10319;SDS011;5205;52.168;5.420;2024-01-10T03:10:58;2.80;;;1.58;;
10319;SDS011;5205;52.168;5.420;2024-01-10T03:13:25;3.60;;;1.63;;
10319;SDS011;5205;52.168;5.420;2024-01-10T03:15:52;5.43;;;2.22;;
10319;SDS011;5205;52.168;5.420;2024-01-10T03:18:21;4.70;;;2.22;;
10319;SDS011;5205;52.168;5.420;2024-01-10T03:20:48;3.13;;;1.80;;
10319;SDS011;5205;52.168;5.420;2024-01-10T03:23:15;7.20;;;2.17;;
10319;SDS011;5205;52.168;5.420;2024-01-10T03:25:42;4.88;;;2.65;;
10319;SDS011;5205;52.168;5.420;2024-01-10T03:28:09;5.22;;;2.28;;
10319;SDS011;5205;52.168;5.420;2024-01-10T03:30:36;3.95;;;2.38;;
10319;SDS011;5205;52.168;5.420;2024-01-10T03:33:03;3.20;;;1.38;;
10319;SDS011;5205;52.168;5.420;2024-01-10T03:35:32;4.93;;;2.38;;
10319;SDS011;5205;52.168;5.420;2024-01-10T03:37:59;7.72;;;2.08;;
10319;SDS011;5205;52.168;5.420;2024-01-10T03:40:26;2.63;;;1.77;;
10319;SDS011;5205;52.168;5.420;2024-01-10T03:42:53;3.33;;;1.83;;
10319;SDS011;5205;52.168;5.420;2024-01-10T03:45:20;3.05;;;1.67;;
10319;SDS011;5205;52.168;5.420;2024-01-10T03:47:48;5.43;;;1.85;;
10319;SDS011;5205;52.168;5.420;2024-01-10T03:50:16;6.88;;;2.25;;
10319;SDS011;5205;52.168;5.420;2024-01-10T03:52:45;4.18;;;2.15;;
10319;SDS011;5205;52.168;5.420;2024-01-10T03:55:12;4.90;;;2.25;;
10319;SDS011;5205;52.168;5.420;2024-01-10T04:00:07;3.92;;;1.92;;
10319;SDS011;5205;52.168;5.420;2024-01-10T04:02:35;4.30;;;1.67;;
10319;SDS011;5205;52.168;5.420;2024-01-10T04:07:29;2.55;;;1.45;;
10319;SDS011;5205;52.168;5.420;2024-01-10T04:09:58;2.42;;;1.40;;
10319;SDS011;5205;52.168;5.420;2024-01-10T04:12:25;2.58;;;1.55;;
10319;SDS011;5205;52.168;5.420;2024-01-10T04:14:52;3.22;;;1.85;;
10319;SDS011;5205;52.168;5.420;2024-01-10T04:17:19;4.65;;;2.38;;
10319;SDS011;5205;52.168;5.420;2024-01-10T04:19:46;3.58;;;1.63;;
10319;SDS011;5205;52.168;5.420;2024-01-10T04:22:13;4.07;;;2.10;;
10319;SDS011;5205;52.168;5.420;2024-01-10T04:24:40;4.43;;;2.08;;
10319;SDS011;5205;52.168;5.420;2024-01-10T04:27:09;2.78;;;1.50;;
10319;SDS011;5205;52.168;5.420;2024-01-10T04:29:36;5.05;;;2.05;;
10319;SDS011;5205;52.168;5.420;2024-01-10T04:32:03;5.45;;;2.22;;
10319;SDS011;5205;52.168;5.420;2024-01-10T04:34:30;3.35;;;2.08;;
10319;SDS011;5205;52.168;5.420;2024-01-10T04:36:57;4.25;;;2.30;;
10319;SDS011;5205;52.168;5.420;2024-01-10T04:39:24;3.50;;;1.90;;
10319;SDS011;5205;52.168;5.420;2024-01-10T04:41:52;6.70;;;1.85;;
10319;SDS011;5205;52.168;5.420;2024-01-10T04:44:20;4.40;;;2.10;;
10319;SDS011;5205;52.168;5.420;2024-01-10T04:46:47;2.60;;;1.83;;
10319;SDS011;5205;52.168;5.420;2024-01-10T04:49:14;5.93;;;2.90;;
10319;SDS011;5205;52.168;5.420;2024-01-10T04:51:41;4.70;;;2.58;;
10319;SDS011;5205;52.168;5.420;2024-01-10T04:54:08;4.60;;;2.10;;
10319;SDS011;5205;52.168;5.420;2024-01-10T04:59:03;2.78;;;1.88;;
10319;SDS011;5205;52.168;5.420;2024-01-10T05:03:59;6.57;;;1.95;;
10319;SDS011;5205;52.168;5.420;2024-01-10T05:06:26;3.50;;;2.30;;
10319;SDS011;5205;52.168;5.420;2024-01-10T05:08:54;3.90;;;1.95;;
10319;SDS011;5205;52.168;5.420;2024-01-10T05:11:23;4.07;;;2.22;;
10319;SDS011;5205;52.168;5.420;2024-01-10T05:13:50;11.52;;;2.60;;
10319;SDS011;5205;52.168;5.420;2024-01-10T05:16:17;4.63;;;2.50;;
10319;SDS011;5205;52.168;5.420;2024-01-10T05:18:44;3.78;;;2.20;;
10319;SDS011;5205;52.168;5.420;2024-01-10T05:21:13;4.22;;;1.92;;
10319;SDS011;5205;52.168;5.420;2024-01-10T05:23:40;3.88;;;2.20;;
10319;SDS011;5205;52.168;5.420;2024-01-10T05:26:07;3.55;;;1.77;;
10319;SDS011;5205;52.168;5.420;2024-01-10T05:28:34;5.18;;;2.45;;
10319;SDS011;5205;52.168;5.420;2024-01-10T05:31:01;3.38;;;1.85;;
10319;SDS011;5205;52.168;5.420;2024-01-10T05:33:28;3.05;;;1.73;;
10319;SDS011;5205;52.168;5.420;2024-01-10T05:35:56;5.72;;;2.40;;
10319;SDS011;5205;52.168;5.420;2024-01-10T05:38:25;7.82;;;2.83;;
10319;SDS011;5205;52.168;5.420;2024-01-10T05:40:52;4.28;;;2.28;;
10319;SDS011;5205;52.168;5.420;2024-01-10T05:43:19;4.07;;;2.50;;
10319;SDS011;5205;52.168;5.420;2024-01-10T05:45:46;6.07;;;2.80;;
10319;SDS011;5205;52.168;5.420;2024-01-10T05:48:13;5.07;;;2.83;;
10319;SDS011;5205;52.168;5.420;2024-01-10T05:50:42;3.78;;;2.35;;
10319;SDS011;5205;52.168;5.420;2024-01-10T05:53:09;4.95;;;2.65;;
10319;SDS011;5205;52.168;5.420;2024-01-10T05:55:40;5.43;;;2.67;;
10319;SDS011;5205;52.168;5.420;2024-01-10T05:58:07;4.93;;;2.00;;
10319;SDS011;5205;52.168;5.420;2024-01-10T06:00:35;6.57;;;2.03;;
10319;SDS011;5205;52.168;5.420;2024-01-10T06:03:02;5.53;;;2.78;;
10319;SDS011;5205;52.168;5.420;2024-01-10T06:05:29;6.18;;;2.75;;
10319;SDS011;5205;52.168;5.420;2024-01-10T06:07:57;12.07;;;2.53;;
10319;SDS011;5205;52.168;5.420;2024-01-10T06:10:24;5.75;;;2.47;;
10319;SDS011;5205;52.168;5.420;2024-01-10T06:12:52;5.13;;;2.67;;
10319;SDS011;5205;52.168;5.420;2024-01-10T06:15:20;7.78;;;2.72;;
10319;SDS011;5205;52.168;5.420;2024-01-10T06:17:47;7.47;;;2.20;;
10319;SDS011;5205;52.168;5.420;2024-01-10T06:20:15;7.35;;;2.25;;
10319;SDS011;5205;52.168;5.420;2024-01-10T06:22:42;5.50;;;2.38;;
10319;SDS011;5205;52.168;5.420;2024-01-10T06:25:11;4.45;;;1.95;;
10319;SDS011;5205;52.168;5.420;2024-01-10T06:27:39;6.75;;;2.72;;
10319;SDS011;5205;52.168;5.420;2024-01-10T06:30:08;4.10;;;2.10;;
10319;SDS011;5205;52.168;5.420;2024-01-10T06:32:36;3.83;;;1.98;;
10319;SDS011;5205;52.168;5.420;2024-01-10T06:35:03;6.07;;;2.90;;
10319;SDS011;5205;52.168;5.420;2024-01-10T06:37:30;8.18;;;2.53;;
10319;SDS011;5205;52.168;5.420;2024-01-10T06:39:58;6.82;;;2.60;;
10319;SDS011;5205;52.168;5.420;2024-01-10T06:42:25;4.78;;;1.92;;
10319;SDS011;5205;52.168;5.420;2024-01-10T06:44:52;6.85;;;2.90;;
10319;SDS011;5205;52.168;5.420;2024-01-10T06:47:20;7.40;;;2.40;;
10319;SDS011;5205;52.168;5.420;2024-01-10T06:49:47;4.85;;;2.28;;
10319;SDS011;5205;52.168;5.420;2024-01-10T06:52:15;5.30;;;2.13;;
10319;SDS011;5205;52.168;5.420;2024-01-10T06:54:42;7.45;;;3.03;;
10319;SDS011;5205;52.168;5.420;2024-01-10T06:57:09;7.47;;;3.17;;
10319;SDS011;5205;52.168;5.420;2024-01-10T06:59:36;4.32;;;2.53;;
10319;SDS011;5205;52.168;5.420;2024-01-10T07:02:03;6.35;;;2.70;;
10319;SDS011;5205;52.168;5.420;2024-01-10T07:04:31;4.68;;;2.55;;
10319;SDS011;5205;52.168;5.420;2024-01-10T07:06:59;5.40;;;2.80;;
10319;SDS011;5205;52.168;5.420;2024-01-10T07:09:27;7.53;;;3.15;;
10319;SDS011;5205;52.168;5.420;2024-01-10T07:11:54;4.18;;;2.10;;
10319;SDS011;5205;52.168;5.420;2024-01-10T07:14:21;4.57;;;2.45;;
10319;SDS011;5205;52.168;5.420;2024-01-10T07:16:49;6.35;;;2.80;;
10319;SDS011;5205;52.168;5.420;2024-01-10T07:19:16;6.00;;;2.58;;
10319;SDS011;5205;52.168;5.420;2024-01-10T07:21:45;6.53;;;2.25;;
10319;SDS011;5205;52.168;5.420;2024-01-10T07:24:12;9.52;;;2.45;;
10319;SDS011;5205;52.168;5.420;2024-01-10T07:26:39;7.22;;;2.55;;
10319;SDS011;5205;52.168;5.420;2024-01-10T07:29:06;3.85;;;1.90;;
10319;SDS011;5205;52.168;5.420;2024-01-10T07:31:34;3.50;;;2.15;;
10319;SDS011;5205;52.168;5.420;2024-01-10T07:34:01;6.32;;;2.50;;
10319;SDS011;5205;52.168;5.420;2024-01-10T07:36:30;9.05;;;2.60;;
10319;SDS011;5205;52.168;5.420;2024-01-10T07:39:00;6.30;;;2.08;;
10319;SDS011;5205;52.168;5.420;2024-01-10T07:41:27;6.53;;;2.85;;
10319;SDS011;5205;52.168;5.420;2024-01-10T07:43:54;6.88;;;3.75;;
10319;SDS011;5205;52.168;5.420;2024-01-10T07:46:21;7.50;;;2.95;;
10319;SDS011;5205;52.168;5.420;2024-01-10T07:48:48;7.55;;;2.83;;
10319;SDS011;5205;52.168;5.420;2024-01-10T07:51:15;7.63;;;3.03;;
10319;SDS011;5205;52.168;5.420;2024-01-10T07:53:42;3.90;;;2.10;;
10319;SDS011;5205;52.168;5.420;2024-01-10T07:56:11;5.22;;;2.78;;
10319;SDS011;5205;52.168;5.420;2024-01-10T07:58:38;9.18;;;3.30;;
10319;SDS011;5205;52.168;5.420;2024-01-10T08:01:06;4.55;;;1.88;;
10319;SDS011;5205;52.168;5.420;2024-01-10T08:03:35;6.55;;;2.65;;
10319;SDS011;5205;52.168;5.420;2024-01-10T08:06:03;5.72;;;2.50;;
10319;SDS011;5205;52.168;5.420;2024-01-10T08:08:31;6.03;;;2.60;;
10319;SDS011;5205;52.168;5.420;2024-01-10T08:10:58;7.50;;;2.33;;
10319;SDS011;5205;52.168;5.420;2024-01-10T08:13:26;4.90;;;2.50;;
10319;SDS011;5205;52.168;5.420;2024-01-10T08:15:53;5.80;;;3.03;;
10319;SDS011;5205;52.168;5.420;2024-01-10T08:18:20;5.80;;;2.85;;
10319;SDS011;5205;52.168;5.420;2024-01-10T08:20:47;5.05;;;2.58;;
10319;SDS011;5205;52.168;5.420;2024-01-10T08:23:14;7.05;;;2.35;;
10319;SDS011;5205;52.168;5.420;2024-01-10T08:25:43;7.05;;;2.92;;
10319;SDS011;5205;52.168;5.420;2024-01-10T08:28:10;6.00;;;2.08;;
10319;SDS011;5205;52.168;5.420;2024-01-10T08:30:39;6.88;;;2.97;;
10319;SDS011;5205;52.168;5.420;2024-01-10T08:33:06;5.93;;;3.08;;
10319;SDS011;5205;52.168;5.420;2024-01-10T08:35:33;8.98;;;4.70;;
10319;SDS011;5205;52.168;5.420;2024-01-10T08:38:00;13.65;;;2.92;;
10319;SDS011;5205;52.168;5.420;2024-01-10T08:40:29;6.75;;;3.15;;
10319;SDS011;5205;52.168;5.420;2024-01-10T08:42:56;5.40;;;2.08;;
10319;SDS011;5205;52.168;5.420;2024-01-10T08:45:23;4.03;;;1.88;;
10319;SDS011;5205;52.168;5.420;2024-01-10T08:47:52;11.88;;;3.53;;
10319;SDS011;5205;52.168;5.420;2024-01-10T08:50:20;7.00;;;3.58;;
10319;SDS011;5205;52.168;5.420;2024-01-10T08:52:47;10.52;;;3.08;;
10319;SDS011;5205;52.168;5.420;2024-01-10T08:55:14;4.57;;;2.55;;
10319;SDS011;5205;52.168;5.420;2024-01-10T08:57:41;3.88;;;1.98;;
10319;SDS011;5205;52.168;5.420;2024-01-10T09:00:09;6.93;;;2.55;;
10319;SDS011;5205;52.168;5.420;2024-01-10T09:02:37;3.75;;;2.58;;
10319;SDS011;5205;52.168;5.420;2024-01-10T09:05:06;4.63;;;2.38;;
10319;SDS011;5205;52.168;5.420;2024-01-10T09:07:35;7.57;;;2.38;;
10319;SDS011;5205;52.168;5.420;2024-01-10T09:10:03;7.22;;;2.92;;
10319;SDS011;5205;52.168;5.420;2024-01-10T09:12:32;10.88;;;2.50;;
10319;SDS011;5205;52.168;5.420;2024-01-10T09:14:59;8.43;;;3.10;;
10319;SDS011;5205;52.168;5.420;2024-01-10T09:17:26;5.97;;;2.75;;
10319;SDS011;5205;52.168;5.420;2024-01-10T09:19:53;6.75;;;2.50;;
10319;SDS011;5205;52.168;5.420;2024-01-10T09:22:22;7.82;;;2.78;;
10319;SDS011;5205;52.168;5.420;2024-01-10T09:24:49;6.72;;;3.15;;
10319;SDS011;5205;52.168;5.420;2024-01-10T09:27:17;7.63;;;2.92;;
10319;SDS011;5205;52.168;5.420;2024-01-10T09:29:44;2.97;;;1.63;;
10319;SDS011;5205;52.168;5.420;2024-01-10T09:32:11;4.68;;;2.45;;
10319;SDS011;5205;52.168;5.420;2024-01-10T09:34:38;3.90;;;2.45;;
10319;SDS011;5205;52.168;5.420;2024-01-10T09:37:05;4.75;;;2.25;;
10319;SDS011;5205;52.168;5.420;2024-01-10T09:39:33;4.90;;;2.72;;
10319;SDS011;5205;52.168;5.420;2024-01-10T09:42:00;4.65;;;2.42;;
10319;SDS011;5205;52.168;5.420;2024-01-10T09:44:28;7.80;;;2.88;;
10319;SDS011;5205;52.168;5.420;2024-01-10T09:46:56;6.15;;;2.15;;
10319;SDS011;5205;52.168;5.420;2024-01-10T09:49:23;4.68;;;2.22;;
10319;SDS011;5205;52.168;5.420;2024-01-10T09:51:53;6.63;;;2.15;;
10319;SDS011;5205;52.168;5.420;2024-01-10T09:54:20;10.55;;;2.88;;
10319;SDS011;5205;52.168;5.420;2024-01-10T09:56:49;5.13;;;1.95;;
10319;SDS011;5205;52.168;5.420;2024-01-10T09:59:16;7.00;;;2.78;;
10319;SDS011;5205;52.168;5.420;2024-01-10T10:01:43;5.32;;;2.38;;
10319;SDS011;5205;52.168;5.420;2024-01-10T10:04:11;6.05;;;2.60;;
10319;SDS011;5205;52.168;5.420;2024-01-10T10:06:38;6.00;;;2.53;;
10319;SDS011;5205;52.168;5.420;2024-01-10T10:09:06;7.03;;;2.45;;
10319;SDS011;5205;52.168;5.420;2024-01-10T10:11:35;6.82;;;2.50;;
10319;SDS011;5205;52.168;5.420;2024-01-10T10:14:14;5.68;;;2.25;;
10319;SDS011;5205;52.168;5.420;2024-01-10T10:16:41;11.65;;;3.00;;
10319;SDS011;5205;52.168;5.420;2024-01-10T10:19:09;7.60;;;2.58;;
10319;SDS011;5205;52.168;5.420;2024-01-10T10:21:36;5.90;;;2.95;;
10319;SDS011;5205;52.168;5.420;2024-01-10T10:24:04;8.02;;;3.53;;
10319;SDS011;5205;52.168;5.420;2024-01-10T10:28:59;5.07;;;2.70;;
10319;SDS011;5205;52.168;5.420;2024-01-10T10:31:28;5.57;;;3.15;;
10319;SDS011;5205;52.168;5.420;2024-01-10T10:33:56;11.02;;;3.95;;
10319;SDS011;5205;52.168;5.420;2024-01-10T10:36:25;6.60;;;3.20;;
10319;SDS011;5205;52.168;5.420;2024-01-10T10:38:52;5.10;;;2.50;;
10319;SDS011;5205;52.168;5.420;2024-01-10T10:41:19;6.55;;;3.20;;
10319;SDS011;5205;52.168;5.420;2024-01-10T10:43:46;6.00;;;2.90;;
10319;SDS011;5205;52.168;5.420;2024-01-10T10:46:15;7.35;;;3.13;;
10319;SDS011;5205;52.168;5.420;2024-01-10T10:48:43;8.35;;;3.35;;
10319;SDS011;5205;52.168;5.420;2024-01-10T10:51:11;6.97;;;2.97;;
10319;SDS011;5205;52.168;5.420;2024-01-10T10:53:42;8.15;;;2.85;;
10319;SDS011;5205;52.168;5.420;2024-01-10T10:56:10;5.70;;;2.53;;
10319;SDS011;5205;52.168;5.420;2024-01-10T10:58:39;6.57;;;2.83;;
10319;SDS011;5205;52.168;5.420;2024-01-10T11:01:07;5.50;;;2.80;;
10319;SDS011;5205;52.168;5.420;2024-01-10T11:03:34;6.13;;;2.63;;
10319;SDS011;5205;52.168;5.420;2024-01-10T11:06:04;5.60;;;2.83;;
10319;SDS011;5205;52.168;5.420;2024-01-10T11:08:32;9.48;;;3.10;;
10319;SDS011;5205;52.168;5.420;2024-01-10T11:11:01;7.72;;;3.28;;
10319;SDS011;5205;52.168;5.420;2024-01-10T11:13:32;10.10;;;3.25;;
10319;SDS011;5205;52.168;5.420;2024-01-10T11:16:13;10.98;;;2.72;;
10319;SDS011;5205;52.168;5.420;2024-01-10T11:18:48;4.30;;;2.38;;
10319;SDS011;5205;52.168;5.420;2024-01-10T11:21:21;5.75;;;2.53;;
10319;SDS011;5205;52.168;5.420;2024-01-10T11:23:53;5.93;;;2.88;;
10319;SDS011;5205;52.168;5.420;2024-01-10T11:26:21;10.60;;;3.13;;
10319;SDS011;5205;52.168;5.420;2024-01-10T11:28:48;7.88;;;3.05;;
10319;SDS011;5205;52.168;5.420;2024-01-10T11:31:26;9.68;;;3.10;;
10319;SDS011;5205;52.168;5.420;2024-01-10T11:33:55;10.20;;;3.30;;
10319;SDS011;5205;52.168;5.420;2024-01-10T11:36:23;8.35;;;3.28;;
10319;SDS011;5205;52.168;5.420;2024-01-10T11:38:56;10.45;;;3.72;;
10319;SDS011;5205;52.168;5.420;2024-01-10T11:41:25;7.78;;;3.20;;
10319;SDS011;5205;52.168;5.420;2024-01-10T11:46:42;7.68;;;3.47;;
10319;SDS011;5205;52.168;5.420;2024-01-10T11:49:10;11.32;;;3.50;;
10319;SDS011;5205;52.168;5.420;2024-01-10T11:51:41;6.40;;;3.05;;
10319;SDS011;5205;52.168;5.420;2024-01-10T11:54:08;17.48;;;3.75;;
10319;SDS011;5205;52.168;5.420;2024-01-10T11:56:37;7.15;;;3.05;;
10319;SDS011;5205;52.168;5.420;2024-01-10T11:59:06;6.95;;;3.30;;
10319;SDS011;5205;52.168;5.420;2024-01-10T12:01:35;7.05;;;3.25;;
10319;SDS011;5205;52.168;5.420;2024-01-10T12:04:03;7.80;;;3.00;;
10319;SDS011;5205;52.168;5.420;2024-01-10T12:06:30;7.95;;;3.17;;
10319;SDS011;5205;52.168;5.420;2024-01-10T12:08:59;12.98;;;3.63;;
10319;SDS011;5205;52.168;5.420;2024-01-10T12:11:29;7.55;;;3.47;;
10319;SDS011;5205;52.168;5.420;2024-01-10T12:13:57;7.00;;;2.92;;
10319;SDS011;5205;52.168;5.420;2024-01-10T12:18:51;7.80;;;3.35;;
10319;SDS011;5205;52.168;5.420;2024-01-10T12:21:18;8.68;;;3.08;;
10319;SDS011;5205;52.168;5.420;2024-01-10T12:23:46;5.88;;;2.83;;
10319;SDS011;5205;52.168;5.420;2024-01-10T12:28:41;7.15;;;2.97;;
10319;SDS011;5205;52.168;5.420;2024-01-10T12:31:19;7.28;;;3.45;;
10319;SDS011;5205;52.168;5.420;2024-01-10T12:33:47;6.63;;;3.00;;
10319;SDS011;5205;52.168;5.420;2024-01-10T12:36:16;6.18;;;3.13;;
10319;SDS011;5205;52.168;5.420;2024-01-10T12:38:43;7.03;;;2.92;;
10319;SDS011;5205;52.168;5.420;2024-01-10T12:41:10;8.35;;;2.72;;
10319;SDS011;5205;52.168;5.420;2024-01-10T12:46:06;5.40;;;2.70;;
10319;SDS011;5205;52.168;5.420;2024-01-10T12:48:35;7.65;;;2.65;;
10319;SDS011;5205;52.168;5.420;2024-01-10T12:51:03;8.35;;;2.85;;
10319;SDS011;5205;52.168;5.420;2024-01-10T12:53:32;11.07;;;3.42;;
10319;SDS011;5205;52.168;5.420;2024-01-10T12:56:00;7.93;;;3.30;;
10319;SDS011;5205;52.168;5.420;2024-01-10T12:58:27;7.47;;;3.38;;
10319;SDS011;5205;52.168;5.420;2024-01-10T13:00:55;9.38;;;3.97;;
10319;SDS011;5205;52.168;5.420;2024-01-10T13:03:23;8.68;;;3.80;;
10319;SDS011;5205;52.168;5.420;2024-01-10T13:05:50;8.32;;;4.00;;
10319;SDS011;5205;52.168;5.420;2024-01-10T13:08:18;8.80;;;4.13;;
10319;SDS011;5205;52.168;5.420;2024-01-10T13:10:45;9.10;;;3.35;;
10319;SDS011;5205;52.168;5.420;2024-01-10T13:13:13;7.60;;;3.65;;
10319;SDS011;5205;52.168;5.420;2024-01-10T13:15:42;10.50;;;3.97;;
10319;SDS011;5205;52.168;5.420;2024-01-10T13:18:09;7.25;;;3.35;;
10319;SDS011;5205;52.168;5.420;2024-01-10T13:20:38;7.63;;;3.38;;
10319;SDS011;5205;52.168;5.420;2024-01-10T13:23:05;7.68;;;3.13;;
10319;SDS011;5205;52.168;5.420;2024-01-10T13:25:32;8.13;;;3.42;;
10319;SDS011;5205;52.168;5.420;2024-01-10T13:27:59;10.82;;;3.83;;
10319;SDS011;5205;52.168;5.420;2024-01-10T13:30:27;7.50;;;2.95;;
10319;SDS011;5205;52.168;5.420;2024-01-10T13:32:54;5.70;;;3.05;;
10319;SDS011;5205;52.168;5.420;2024-01-10T13:35:21;12.30;;;3.97;;
10319;SDS011;5205;52.168;5.420;2024-01-10T13:37:50;11.82;;;3.80;;
10319;SDS011;5205;52.168;5.420;2024-01-10T13:40:17;10.25;;;3.60;;
10319;SDS011;5205;52.168;5.420;2024-01-10T13:42:48;7.03;;;3.47;;
10319;SDS011;5205;52.168;5.420;2024-01-10T13:45:16;8.52;;;3.80;;
10319;SDS011;5205;52.168;5.420;2024-01-10T13:47:43;6.57;;;3.05;;
10319;SDS011;5205;52.168;5.420;2024-01-10T13:50:10;6.38;;;2.85;;
10319;SDS011;5205;52.168;5.420;2024-01-10T13:52:38;6.75;;;3.17;;
10319;SDS011;5205;52.168;5.420;2024-01-10T13:55:06;8.48;;;3.65;;
10319;SDS011;5205;52.168;5.420;2024-01-10T13:57:34;8.20;;;3.55;;
10319;SDS011;5205;52.168;5.420;2024-01-10T14:00:01;7.75;;;3.28;;
10319;SDS011;5205;52.168;5.420;2024-01-10T14:02:30;6.40;;;3.10;;
10319;SDS011;5205;52.168;5.420;2024-01-10T14:04:57;6.93;;;3.13;;
10319;SDS011;5205;52.168;5.420;2024-01-10T14:07:24;13.27;;;3.35;;
10319;SDS011;5205;52.168;5.420;2024-01-10T14:09:51;6.95;;;3.17;;
10319;SDS011;5205;52.168;5.420;2024-01-10T14:12:21;7.72;;;3.50;;
10319;SDS011;5205;52.168;5.420;2024-01-10T14:14:48;11.25;;;3.47;;
10319;SDS011;5205;52.168;5.420;2024-01-10T14:17:15;7.97;;;3.65;;
10319;SDS011;5205;52.168;5.420;2024-01-10T14:19:42;7.05;;;2.95;;
10319;SDS011;5205;52.168;5.420;2024-01-10T14:22:10;7.88;;;3.80;;
10319;SDS011;5205;52.168;5.420;2024-01-10T14:24:37;7.82;;;3.58;;
10319;SDS011;5205;52.168;5.420;2024-01-10T14:27:04;8.00;;;3.22;;
10319;SDS011;5205;52.168;5.420;2024-01-10T14:29:34;8.25;;;3.88;;
10319;SDS011;5205;52.168;5.420;2024-01-10T14:32:01;7.07;;;3.00;;
10319;SDS011;5205;52.168;5.420;2024-01-10T14:34:28;8.15;;;3.35;;
10319;SDS011;5205;52.168;5.420;2024-01-10T14:36:55;7.43;;;3.20;;
10319;SDS011;5205;52.168;5.420;2024-01-10T14:39:23;8.50;;;2.97;;
10319;SDS011;5205;52.168;5.420;2024-01-10T14:41:50;7.55;;;3.13;;
10319;SDS011;5205;52.168;5.420;2024-01-10T14:44:17;10.45;;;3.58;;
10319;SDS011;5205;52.168;5.420;2024-01-10T14:46:45;6.28;;;3.40;;
10319;SDS011;5205;52.168;5.420;2024-01-10T14:49:12;8.90;;;3.42;;
10319;SDS011;5205;52.168;5.420;2024-01-10T14:51:39;8.20;;;3.67;;
10319;SDS011;5205;52.168;5.420;2024-01-10T14:54:06;5.95;;;2.75;;
10319;SDS011;5205;52.168;5.420;2024-01-10T14:56:34;5.53;;;3.17;;
10319;SDS011;5205;52.168;5.420;2024-01-10T14:59:01;7.20;;;3.15;;
10319;SDS011;5205;52.168;5.420;2024-01-10T15:01:28;9.90;;;4.13;;
10319;SDS011;5205;52.168;5.420;2024-01-10T15:03:57;6.82;;;3.40;;
10319;SDS011;5205;52.168;5.420;2024-01-10T15:06:24;5.63;;;2.53;;
10319;SDS011;5205;52.168;5.420;2024-01-10T15:08:51;6.70;;;3.35;;
10319;SDS011;5205;52.168;5.420;2024-01-10T15:11:18;8.55;;;3.15;;
10319;SDS011;5205;52.168;5.420;2024-01-10T15:13:46;14.85;;;3.60;;
10319;SDS011;5205;52.168;5.420;2024-01-10T15:16:13;10.70;;;3.28;;
10319;SDS011;5205;52.168;5.420;2024-01-10T15:18:40;6.88;;;3.38;;
10319;SDS011;5205;52.168;5.420;2024-01-10T15:21:08;9.02;;;3.22;;
10319;SDS011;5205;52.168;5.420;2024-01-10T15:23:36;9.38;;;3.63;;
10319;SDS011;5205;52.168;5.420;2024-01-10T15:26:04;6.75;;;2.90;;
10319;SDS011;5205;52.168;5.420;2024-01-10T15:28:31;8.63;;;3.30;;